sensor_id;sensor_type;location;lat;lon;timestamp;P1;durP1;ratioP1;P2;durP2;ratioP2
5704;SDS011;2877;48.238;11.160;2023-07-09T00:00:45;5.70;;;4.30;;
5704;SDS011;2877;48.238;11.160;2023-07-09T00:03:12;5.97;;;4.23;;
5704;SDS011;2877;48.238;11.160;2023-07-09T00:05:37;5.73;;;4.50;;
5704;SDS011;2877;48.238;11.160;2023-07-09T00:08:03;7.47;;;4.53;;
5704;SDS011;2877;48.238;11.160;2023-07-09T00:10:29;6.40;;;4.63;;
5704;SDS011;2877;48.238;11.160;2023-07-09T00:12:55;6.60;;;4.27;;
5704;SDS011;2877;48.238;11.160;2023-07-09T00:15:21;11.67;;;5.10;;
5704;SDS011;2877;48.238;11.160;2023-07-09T00:17:46;8.10;;;5.00;;
5704;SDS011;2877;48.238;11.160;2023-07-09T00:20:13;7.93;;;4.23;;
5704;SDS011;2877;48.238;11.160;2023-07-09T00:22:43;4.50;;;3.90;;
5704;SDS011;2877;48.238;11.160;2023-07-09T00:25:17;8.70;;;4.93;;
5704;SDS011;2877;48.238;11.160;2023-07-09T00:27:44;6.53;;;4.73;;
5704;SDS011;2877;48.238;11.160;2023-07-09T00:30:17;7.30;;;4.88;;
5704;SDS011;2877;48.238;11.160;2023-07-09T00:32:45;7.80;;;4.90;;
5704;SDS011;2877;48.238;11.160;2023-07-09T00:35:13;7.67;;;4.43;;
5704;SDS011;2877;48.238;11.160;2023-07-09T00:37:40;7.90;;;4.70;;
5704;SDS011;2877;48.238;11.160;2023-07-09T00:40:10;6.35;;;4.72;;
5704;SDS011;2877;48.238;11.160;2023-07-09T00:42:47;8.23;;;4.23;;
5704;SDS011;2877;48.238;11.160;2023-07-09T00:45:20;12.43;;;4.70;;
5704;SDS011;2877;48.238;11.160;2023-07-09T00:47:55;7.03;;;4.80;;
5704;SDS011;2877;48.238;11.160;2023-07-09T00:53:26;5.50;;;4.53;;
5704;SDS011;2877;48.238;11.160;2023-07-09T00:55:59;8.23;;;4.50;;
5704;SDS011;2877;48.238;11.160;2023-07-09T00:58:30;11.60;;;4.90;;
5704;SDS011;2877;48.238;11.160;2023-07-09T01:01:01;10.43;;;5.03;;
5704;SDS011;2877;48.238;11.160;2023-07-09T01:03:34;7.67;;;4.33;;
5704;SDS011;2877;48.238;11.160;2023-07-09T01:06:05;6.80;;;4.50;;
5704;SDS011;2877;48.238;11.160;2023-07-09T01:08:32;10.60;;;4.80;;
5704;SDS011;2877;48.238;11.160;2023-07-09T01:10:59;7.60;;;4.80;;
5704;SDS011;2877;48.238;11.160;2023-07-09T01:13:26;9.93;;;4.93;;
5704;SDS011;2877;48.238;11.160;2023-07-09T01:15:57;7.63;;;4.50;;
5704;SDS011;2877;48.238;11.160;2023-07-09T01:18:23;10.00;;;5.27;;
5704;SDS011;2877;48.238;11.160;2023-07-09T01:20:50;10.03;;;5.30;;
5704;SDS011;2877;48.238;11.160;2023-07-09T01:23:17;10.03;;;5.00;;
5704;SDS011;2877;48.238;11.160;2023-07-09T01:25:44;7.30;;;4.77;;
5704;SDS011;2877;48.238;11.160;2023-07-09T01:28:17;5.70;;;4.50;;
5704;SDS011;2877;48.238;11.160;2023-07-09T01:30:43;9.10;;;4.50;;
5704;SDS011;2877;48.238;11.160;2023-07-09T01:33:10;6.30;;;4.37;;
5704;SDS011;2877;48.238;11.160;2023-07-09T01:35:36;6.07;;;4.17;;
5704;SDS011;2877;48.238;11.160;2023-07-09T01:38:06;6.67;;;4.50;;
5704;SDS011;2877;48.238;11.160;2023-07-09T01:40:32;5.80;;;4.20;;
5704;SDS011;2877;48.238;11.160;2023-07-09T01:42:58;5.63;;;4.70;;
5704;SDS011;2877;48.238;11.160;2023-07-09T01:45:24;5.70;;;3.90;;
5704;SDS011;2877;48.238;11.160;2023-07-09T01:47:50;8.23;;;4.90;;
5704;SDS011;2877;48.238;11.160;2023-07-09T01:50:18;6.50;;;4.23;;
5704;SDS011;2877;48.238;11.160;2023-07-09T01:52:44;5.70;;;4.20;;
5704;SDS011;2877;48.238;11.160;2023-07-09T01:55:11;7.90;;;4.50;;
5704;SDS011;2877;48.238;11.160;2023-07-09T01:57:41;8.53;;;4.40;;
5704;SDS011;2877;48.238;11.160;2023-07-09T02:00:09;5.60;;;4.70;;
5704;SDS011;2877;48.238;11.160;2023-07-09T02:02:38;7.87;;;4.40;;
5704;SDS011;2877;48.238;11.160;2023-07-09T02:05:08;4.80;;;4.00;;
5704;SDS011;2877;48.238;11.160;2023-07-09T02:07:34;9.47;;;5.50;;
5704;SDS011;2877;48.238;11.160;2023-07-09T02:10:00;5.27;;;4.17;;
5704;SDS011;2877;48.238;11.160;2023-07-09T02:12:26;6.97;;;4.03;;
5704;SDS011;2877;48.238;11.160;2023-07-09T02:14:51;10.27;;;4.77;;
5704;SDS011;2877;48.238;11.160;2023-07-09T02:17:17;5.77;;;3.97;;
5704;SDS011;2877;48.238;11.160;2023-07-09T02:19:43;8.97;;;4.30;;
5704;SDS011;2877;48.238;11.160;2023-07-09T02:22:09;6.83;;;3.90;;
5704;SDS011;2877;48.238;11.160;2023-07-09T02:24:35;9.40;;;4.10;;
5704;SDS011;2877;48.238;11.160;2023-07-09T02:27:02;7.60;;;4.60;;
5704;SDS011;2877;48.238;11.160;2023-07-09T02:29:30;10.30;;;4.50;;
5704;SDS011;2877;48.238;11.160;2023-07-09T02:31:57;7.90;;;5.47;;
5704;SDS011;2877;48.238;11.160;2023-07-09T02:34:27;6.77;;;4.37;;
5704;SDS011;2877;48.238;11.160;2023-07-09T02:36:54;6.17;;;4.47;;
5704;SDS011;2877;48.238;11.160;2023-07-09T02:39:21;8.13;;;4.87;;
5704;SDS011;2877;48.238;11.160;2023-07-09T02:41:47;7.07;;;4.50;;
5704;SDS011;2877;48.238;11.160;2023-07-09T02:44:13;7.03;;;4.30;;
5704;SDS011;2877;48.238;11.160;2023-07-09T02:46:39;5.00;;;4.20;;
5704;SDS011;2877;48.238;11.160;2023-07-09T02:49:05;7.60;;;4.47;;
5704;SDS011;2877;48.238;11.160;2023-07-09T02:51:32;5.60;;;4.00;;
5704;SDS011;2877;48.238;11.160;2023-07-09T02:53:58;6.93;;;4.23;;
5704;SDS011;2877;48.238;11.160;2023-07-09T02:56:25;6.10;;;4.57;;
5704;SDS011;2877;48.238;11.160;2023-07-09T02:58:51;5.73;;;4.17;;
5704;SDS011;2877;48.238;11.160;2023-07-09T03:01:17;5.20;;;4.00;;
5704;SDS011;2877;48.238;11.160;2023-07-09T03:03:45;9.37;;;5.07;;
5704;SDS011;2877;48.238;11.160;2023-07-09T03:06:10;6.23;;;4.13;;
5704;SDS011;2877;48.238;11.160;2023-07-09T03:08:36;5.90;;;4.77;;
5704;SDS011;2877;48.238;11.160;2023-07-09T03:11:11;9.40;;;4.53;;
5704;SDS011;2877;48.238;11.160;2023-07-09T03:13:38;6.23;;;4.10;;
5704;SDS011;2877;48.238;11.160;2023-07-09T03:16:04;7.00;;;3.87;;
5704;SDS011;2877;48.238;11.160;2023-07-09T03:18:30;6.63;;;4.20;;
5704;SDS011;2877;48.238;11.160;2023-07-09T03:20:56;6.23;;;4.00;;
5704;SDS011;2877;48.238;11.160;2023-07-09T03:23:21;6.50;;;4.50;;
5704;SDS011;2877;48.238;11.160;2023-07-09T03:25:47;6.00;;;4.33;;
5704;SDS011;2877;48.238;11.160;2023-07-09T03:28:13;5.93;;;4.03;;
5704;SDS011;2877;48.238;11.160;2023-07-09T03:30:42;9.00;;;4.10;;
5704;SDS011;2877;48.238;11.160;2023-07-09T03:33:09;6.80;;;4.47;;
5704;SDS011;2877;48.238;11.160;2023-07-09T03:35:35;6.80;;;4.37;;
5704;SDS011;2877;48.238;11.160;2023-07-09T03:38:01;5.97;;;4.30;;
5704;SDS011;2877;48.238;11.160;2023-07-09T03:40:27;6.67;;;4.13;;
5704;SDS011;2877;48.238;11.160;2023-07-09T03:42:53;7.20;;;4.20;;
5704;SDS011;2877;48.238;11.160;2023-07-09T03:45:18;5.67;;;4.03;;
5704;SDS011;2877;48.238;11.160;2023-07-09T03:47:43;8.17;;;4.73;;
5704;SDS011;2877;48.238;11.160;2023-07-09T03:50:09;7.97;;;4.53;;
5704;SDS011;2877;48.238;11.160;2023-07-09T03:52:36;5.60;;;4.43;;
5704;SDS011;2877;48.238;11.160;2023-07-09T03:55:02;7.13;;;4.47;;
5704;SDS011;2877;48.238;11.160;2023-07-09T03:57:31;7.60;;;4.67;;
5704;SDS011;2877;48.238;11.160;2023-07-09T03:59:57;10.90;;;4.77;;
5704;SDS011;2877;48.238;11.160;2023-07-09T04:02:22;13.40;;;4.70;;
5704;SDS011;2877;48.238;11.160;2023-07-09T04:04:48;6.63;;;4.97;;
5704;SDS011;2877;48.238;11.160;2023-07-09T04:07:14;7.33;;;4.73;;
5704;SDS011;2877;48.238;11.160;2023-07-09T04:09:39;8.80;;;4.60;;
5704;SDS011;2877;48.238;11.160;2023-07-09T04:12:05;15.50;;;4.50;;
5704;SDS011;2877;48.238;11.160;2023-07-09T04:14:31;7.50;;;4.80;;
5704;SDS011;2877;48.238;11.160;2023-07-09T04:16:57;6.60;;;4.40;;
5704;SDS011;2877;48.238;11.160;2023-07-09T04:19:23;9.67;;;4.27;;
5704;SDS011;2877;48.238;11.160;2023-07-09T04:21:48;10.70;;;4.40;;
5704;SDS011;2877;48.238;11.160;2023-07-09T04:24:16;5.07;;;4.10;;
5704;SDS011;2877;48.238;11.160;2023-07-09T04:26:42;6.03;;;4.50;;
5704;SDS011;2877;48.238;11.160;2023-07-09T04:29:08;6.07;;;4.07;;
5704;SDS011;2877;48.238;11.160;2023-07-09T04:31:34;8.60;;;5.03;;
5704;SDS011;2877;48.238;11.160;2023-07-09T04:33:59;6.17;;;4.40;;
5704;SDS011;2877;48.238;11.160;2023-07-09T04:36:25;10.83;;;4.73;;
5704;SDS011;2877;48.238;11.160;2023-07-09T04:38:51;5.43;;;4.40;;
5704;SDS011;2877;48.238;11.160;2023-07-09T04:41:17;6.30;;;4.80;;
5704;SDS011;2877;48.238;11.160;2023-07-09T04:43:42;5.30;;;4.07;;
5704;SDS011;2877;48.238;11.160;2023-07-09T04:46:08;9.27;;;4.47;;
5704;SDS011;2877;48.238;11.160;2023-07-09T04:48:34;10.23;;;4.20;;
5704;SDS011;2877;48.238;11.160;2023-07-09T04:50:59;5.93;;;4.23;;
5704;SDS011;2877;48.238;11.160;2023-07-09T04:53:25;11.20;;;5.03;;
5704;SDS011;2877;48.238;11.160;2023-07-09T04:55:51;5.67;;;4.33;;
5704;SDS011;2877;48.238;11.160;2023-07-09T04:58:17;5.00;;;4.37;;
5704;SDS011;2877;48.238;11.160;2023-07-09T05:00:43;5.23;;;3.90;;
5704;SDS011;2877;48.238;11.160;2023-07-09T05:03:09;7.13;;;4.43;;
5704;SDS011;2877;48.238;11.160;2023-07-09T05:05:35;9.40;;;4.33;;
5704;SDS011;2877;48.238;11.160;2023-07-09T05:08:00;5.90;;;4.23;;
5704;SDS011;2877;48.238;11.160;2023-07-09T05:10:26;12.00;;;4.90;;
5704;SDS011;2877;48.238;11.160;2023-07-09T05:12:52;7.43;;;4.23;;
5704;SDS011;2877;48.238;11.160;2023-07-09T05:15:20;5.73;;;3.87;;
5704;SDS011;2877;48.238;11.160;2023-07-09T05:17:46;6.17;;;3.90;;
5704;SDS011;2877;48.238;11.160;2023-07-09T05:20:13;5.23;;;3.60;;
5704;SDS011;2877;48.238;11.160;2023-07-09T05:22:39;7.90;;;4.80;;
5704;SDS011;2877;48.238;11.160;2023-07-09T05:25:05;6.10;;;4.67;;
5704;SDS011;2877;48.238;11.160;2023-07-09T05:27:31;6.00;;;3.63;;
5704;SDS011;2877;48.238;11.160;2023-07-09T05:29:56;5.77;;;4.53;;
5704;SDS011;2877;48.238;11.160;2023-07-09T05:32:23;5.60;;;4.20;;
5704;SDS011;2877;48.238;11.160;2023-07-09T05:34:49;5.33;;;4.13;;
5704;SDS011;2877;48.238;11.160;2023-07-09T05:37:14;7.50;;;4.57;;
5704;SDS011;2877;48.238;11.160;2023-07-09T05:39:40;4.87;;;3.80;;
5704;SDS011;2877;48.238;11.160;2023-07-09T05:42:06;6.40;;;4.33;;
5704;SDS011;2877;48.238;11.160;2023-07-09T05:44:32;8.60;;;4.37;;
5704;SDS011;2877;48.238;11.160;2023-07-09T05:46:57;5.13;;;4.17;;
5704;SDS011;2877;48.238;11.160;2023-07-09T05:49:23;4.63;;;3.97;;
5704;SDS011;2877;48.238;11.160;2023-07-09T05:51:48;4.80;;;3.60;;
5704;SDS011;2877;48.238;11.160;2023-07-09T05:54:14;5.20;;;4.17;;
5704;SDS011;2877;48.238;11.160;2023-07-09T05:56:39;5.33;;;3.93;;
5704;SDS011;2877;48.238;11.160;2023-07-09T05:59:06;5.67;;;4.10;;
5704;SDS011;2877;48.238;11.160;2023-07-09T06:01:31;7.70;;;4.53;;
5704;SDS011;2877;48.238;11.160;2023-07-09T06:03:57;10.50;;;4.90;;
5704;SDS011;2877;48.238;11.160;2023-07-09T06:06:22;6.97;;;3.87;;
5704;SDS011;2877;48.238;11.160;2023-07-09T06:08:48;10.30;;;4.33;;
5704;SDS011;2877;48.238;11.160;2023-07-09T06:11:15;8.60;;;4.00;;
5704;SDS011;2877;48.238;11.160;2023-07-09T06:13:42;4.93;;;4.20;;
5704;SDS011;2877;48.238;11.160;2023-07-09T06:16:08;4.20;;;3.63;;
5704;SDS011;2877;48.238;11.160;2023-07-09T06:18:34;5.03;;;3.70;;
5704;SDS011;2877;48.238;11.160;2023-07-09T06:21:00;8.27;;;4.03;;
5704;SDS011;2877;48.238;11.160;2023-07-09T06:23:26;4.77;;;3.37;;
5704;SDS011;2877;48.238;11.160;2023-07-09T06:25:52;7.80;;;3.87;;
5704;SDS011;2877;48.238;11.160;2023-07-09T06:28:20;4.53;;;3.30;;
5704;SDS011;2877;48.238;11.160;2023-07-09T06:30:47;12.20;;;4.13;;
5704;SDS011;2877;48.238;11.160;2023-07-09T06:33:13;8.23;;;4.43;;
5704;SDS011;2877;48.238;11.160;2023-07-09T06:35:50;4.07;;;3.50;;
5704;SDS011;2877;48.238;11.160;2023-07-09T06:38:23;4.70;;;3.27;;
5704;SDS011;2877;48.238;11.160;2023-07-09T06:40:49;4.40;;;3.97;;
5704;SDS011;2877;48.238;11.160;2023-07-09T06:43:16;5.37;;;3.77;;
5704;SDS011;2877;48.238;11.160;2023-07-09T06:46:15;4.93;;;3.70;;
5704;SDS011;2877;48.238;11.160;2023-07-09T06:48:36;4.37;;;3.40;;
5704;SDS011;2877;48.238;11.160;2023-07-09T06:51:02;4.87;;;3.17;;
5704;SDS011;2877;48.238;11.160;2023-07-09T06:53:28;7.77;;;3.53;;
5704;SDS011;2877;48.238;11.160;2023-07-09T06:55:54;4.70;;;3.20;;
5704;SDS011;2877;48.238;11.160;2023-07-09T06:58:23;6.83;;;3.60;;
5704;SDS011;2877;48.238;11.160;2023-07-09T07:00:50;5.87;;;3.30;;
5704;SDS011;2877;48.238;11.160;2023-07-09T07:03:17;5.40;;;3.13;;
5704;SDS011;2877;48.238;11.160;2023-07-09T07:05:49;9.77;;;3.87;;
5704;SDS011;2877;48.238;11.160;2023-07-09T07:08:19;6.30;;;3.77;;
5704;SDS011;2877;48.238;11.160;2023-07-09T07:10:47;3.93;;;3.53;;
5704;SDS011;2877;48.238;11.160;2023-07-09T07:13:13;4.07;;;3.33;;
5704;SDS011;2877;48.238;11.160;2023-07-09T07:15:39;5.97;;;3.50;;
5704;SDS011;2877;48.238;11.160;2023-07-09T07:18:05;5.53;;;3.80;;
5704;SDS011;2877;48.238;11.160;2023-07-09T07:20:31;4.13;;;3.13;;
5704;SDS011;2877;48.238;11.160;2023-07-09T07:22:57;4.03;;;3.17;;
5704;SDS011;2877;48.238;11.160;2023-07-09T07:25:23;4.37;;;3.13;;
5704;SDS011;2877;48.238;11.160;2023-07-09T07:27:49;5.73;;;3.80;;
5704;SDS011;2877;48.238;11.160;2023-07-09T07:30:15;6.13;;;2.93;;
5704;SDS011;2877;48.238;11.160;2023-07-09T07:32:44;5.23;;;3.23;;
5704;SDS011;2877;48.238;11.160;2023-07-09T07:35:12;3.33;;;3.03;;
5704;SDS011;2877;48.238;11.160;2023-07-09T07:37:39;9.70;;;3.37;;
5704;SDS011;2877;48.238;11.160;2023-07-09T07:40:05;7.80;;;3.30;;
5704;SDS011;2877;48.238;11.160;2023-07-09T07:42:32;6.10;;;3.57;;
5704;SDS011;2877;48.238;11.160;2023-07-09T07:44:57;4.00;;;3.43;;
5704;SDS011;2877;48.238;11.160;2023-07-09T07:47:23;6.40;;;3.33;;
5704;SDS011;2877;48.238;11.160;2023-07-09T07:49:49;4.40;;;2.77;;
5704;SDS011;2877;48.238;11.160;2023-07-09T07:52:14;10.13;;;3.20;;
5704;SDS011;2877;48.238;11.160;2023-07-09T07:54:40;8.80;;;2.80;;
5704;SDS011;2877;48.238;11.160;2023-07-09T07:57:05;3.60;;;2.73;;
5704;SDS011;2877;48.238;11.160;2023-07-09T07:59:34;6.10;;;3.27;;
5704;SDS011;2877;48.238;11.160;2023-07-09T08:02:01;4.03;;;2.60;;
5704;SDS011;2877;48.238;11.160;2023-07-09T08:04:27;4.20;;;3.10;;
5704;SDS011;2877;48.238;11.160;2023-07-09T08:06:52;3.50;;;2.90;;
5704;SDS011;2877;48.238;11.160;2023-07-09T08:09:18;9.20;;;3.03;;
5704;SDS011;2877;48.238;11.160;2023-07-09T08:11:44;3.80;;;3.00;;
5704;SDS011;2877;48.238;11.160;2023-07-09T08:14:10;5.93;;;3.40;;
5704;SDS011;2877;48.238;11.160;2023-07-09T08:16:36;9.50;;;3.17;;
5704;SDS011;2877;48.238;11.160;2023-07-09T08:19:02;4.30;;;2.83;;
5704;SDS011;2877;48.238;11.160;2023-07-09T08:21:27;4.90;;;3.10;;
5704;SDS011;2877;48.238;11.160;2023-07-09T08:23:53;3.90;;;3.07;;
5704;SDS011;2877;48.238;11.160;2023-07-09T08:26:18;3.27;;;2.80;;
5704;SDS011;2877;48.238;11.160;2023-07-09T08:28:44;3.80;;;2.70;;
5704;SDS011;2877;48.238;11.160;2023-07-09T08:31:09;3.23;;;2.60;;
5704;SDS011;2877;48.238;11.160;2023-07-09T08:33:35;6.37;;;2.63;;
5704;SDS011;2877;48.238;11.160;2023-07-09T08:36:01;3.30;;;2.50;;
5704;SDS011;2877;48.238;11.160;2023-07-09T08:38:27;6.53;;;3.27;;
5704;SDS011;2877;48.238;11.160;2023-07-09T08:40:59;6.47;;;2.87;;
5704;SDS011;2877;48.238;11.160;2023-07-09T08:43:41;4.60;;;2.83;;
5704;SDS011;2877;48.238;11.160;2023-07-09T08:48:44;4.47;;;3.00;;
5704;SDS011;2877;48.238;11.160;2023-07-09T08:51:18;4.93;;;3.20;;
5704;SDS011;2877;48.238;11.160;2023-07-09T08:53:58;4.10;;;2.87;;
5704;SDS011;2877;48.238;11.160;2023-07-09T08:56:25;8.20;;;3.37;;
5704;SDS011;2877;48.238;11.160;2023-07-09T08:58:54;4.87;;;2.90;;
5704;SDS011;2877;48.238;11.160;2023-07-09T09:01:28;7.83;;;3.20;;
5704;SDS011;2877;48.238;11.160;2023-07-09T09:04:04;5.03;;;2.90;;
5704;SDS011;2877;48.238;11.160;2023-07-09T09:07:42;8.37;;;3.50;;
5704;SDS011;2877;48.238;11.160;2023-07-09T09:09:58;4.60;;;3.07;;
5704;SDS011;2877;48.238;11.160;2023-07-09T09:12:29;3.50;;;2.90;;
5704;SDS011;2877;48.238;11.160;2023-07-09T09:15:04;3.83;;;2.80;;
5704;SDS011;2877;48.238;11.160;2023-07-09T09:17:41;6.37;;;2.70;;
5704;SDS011;2877;48.238;11.160;2023-07-09T09:20:11;4.57;;;2.97;;
5704;SDS011;2877;48.238;11.160;2023-07-09T09:23:15;10.53;;;3.20;;
5704;SDS011;2877;48.238;11.160;2023-07-09T09:25:35;9.70;;;3.27;;
5704;SDS011;2877;48.238;11.160;2023-07-09T09:28:05;5.10;;;3.37;;
5704;SDS011;2877;48.238;11.160;2023-07-09T09:30:30;6.23;;;3.43;;
5704;SDS011;2877;48.238;11.160;2023-07-09T09:32:57;6.13;;;3.93;;
5704;SDS011;2877;48.238;11.160;2023-07-09T09:35:28;4.87;;;3.37;;
5704;SDS011;2877;48.238;11.160;2023-07-09T09:38:00;4.90;;;2.87;;
5704;SDS011;2877;48.238;11.160;2023-07-09T09:40:28;4.67;;;3.47;;
5704;SDS011;2877;48.238;11.160;2023-07-09T09:42:58;7.10;;;2.97;;
5704;SDS011;2877;48.238;11.160;2023-07-09T09:45:31;6.30;;;2.87;;
5704;SDS011;2877;48.238;11.160;2023-07-09T09:48:08;5.70;;;3.10;;
5704;SDS011;2877;48.238;11.160;2023-07-09T09:51:03;6.70;;;3.00;;
5704;SDS011;2877;48.238;11.160;2023-07-09T09:53:30;6.50;;;3.23;;
5704;SDS011;2877;48.238;11.160;2023-07-09T09:56:03;3.90;;;3.20;;
5704;SDS011;2877;48.238;11.160;2023-07-09T09:58:31;5.37;;;3.50;;
5704;SDS011;2877;48.238;11.160;2023-07-09T10:00:57;6.07;;;2.93;;
5704;SDS011;2877;48.238;11.160;2023-07-09T10:03:35;6.60;;;3.13;;
5704;SDS011;2877;48.238;11.160;2023-07-09T10:06:06;7.60;;;3.40;;
5704;SDS011;2877;48.238;11.160;2023-07-09T10:13:46;6.70;;;3.30;;
5704;SDS011;2877;48.238;11.160;2023-07-09T10:22:10;4.73;;;3.47;;
5704;SDS011;2877;48.238;11.160;2023-07-09T10:24:48;4.90;;;3.20;;
5704;SDS011;2877;48.238;11.160;2023-07-09T10:27:28;3.53;;;2.90;;
5704;SDS011;2877;48.238;11.160;2023-07-09T10:40:48;4.67;;;3.27;;
5704;SDS011;2877;48.238;11.160;2023-07-09T10:43:22;8.90;;;3.70;;
5704;SDS011;2877;48.238;11.160;2023-07-09T10:45:56;8.50;;;4.20;;
5704;SDS011;2877;48.238;11.160;2023-07-09T10:50:58;9.17;;;3.77;;
5704;SDS011;2877;48.238;11.160;2023-07-09T10:55:59;6.37;;;3.30;;
5704;SDS011;2877;48.238;11.160;2023-07-09T10:59:19;5.23;;;3.60;;
5704;SDS011;2877;48.238;11.160;2023-07-09T11:01:49;3.67;;;3.00;;
5704;SDS011;2877;48.238;11.160;2023-07-09T11:07:29;7.33;;;3.50;;
5704;SDS011;2877;48.238;11.160;2023-07-09T11:09:58;3.80;;;3.13;;
5704;SDS011;2877;48.238;11.160;2023-07-09T11:15:03;7.03;;;3.30;;
5704;SDS011;2877;48.238;11.160;2023-07-09T11:17:31;6.40;;;3.43;;
5704;SDS011;2877;48.238;11.160;2023-07-09T11:19:59;11.20;;;3.73;;
5704;SDS011;2877;48.238;11.160;2023-07-09T11:22:38;5.07;;;3.20;;
5704;SDS011;2877;48.238;11.160;2023-07-09T11:27:45;7.20;;;3.77;;
5704;SDS011;2877;48.238;11.160;2023-07-09T11:30:27;5.00;;;3.20;;
5704;SDS011;2877;48.238;11.160;2023-07-09T11:32:56;5.30;;;3.40;;
5704;SDS011;2877;48.238;11.160;2023-07-09T11:35:42;8.33;;;2.90;;
5704;SDS011;2877;48.238;11.160;2023-07-09T11:38:17;4.47;;;3.17;;
5704;SDS011;2877;48.238;11.160;2023-07-09T11:40:50;10.00;;;3.33;;
5704;SDS011;2877;48.238;11.160;2023-07-09T11:44:00;3.50;;;2.63;;
5704;SDS011;2877;48.238;11.160;2023-07-09T11:46:14;4.90;;;3.30;;
5704;SDS011;2877;48.238;11.160;2023-07-09T11:48:45;6.10;;;3.10;;
5704;SDS011;2877;48.238;11.160;2023-07-09T11:51:15;7.20;;;3.23;;
5704;SDS011;2877;48.238;11.160;2023-07-09T11:53:49;9.33;;;2.93;;
5704;SDS011;2877;48.238;11.160;2023-07-09T11:56:18;4.47;;;2.97;;
5704;SDS011;2877;48.238;11.160;2023-07-09T11:58:48;3.87;;;2.80;;
5704;SDS011;2877;48.238;11.160;2023-07-09T12:01:15;3.80;;;2.90;;
5704;SDS011;2877;48.238;11.160;2023-07-09T12:03:44;3.70;;;2.93;;
5704;SDS011;2877;48.238;11.160;2023-07-09T12:08:45;3.30;;;3.00;;
5704;SDS011;2877;48.238;11.160;2023-07-09T12:11:28;5.77;;;3.50;;
5704;SDS011;2877;48.238;11.160;2023-07-09T12:14:08;7.27;;;2.80;;
5704;SDS011;2877;48.238;11.160;2023-07-09T12:16:39;7.43;;;3.13;;
5704;SDS011;2877;48.238;11.160;2023-07-09T12:19:14;5.20;;;3.43;;
5704;SDS011;2877;48.238;11.160;2023-07-09T12:21:42;8.00;;;3.40;;
5704;SDS011;2877;48.238;11.160;2023-07-09T12:26:52;4.10;;;3.20;;
5704;SDS011;2877;48.238;11.160;2023-07-09T12:29:19;4.40;;;2.77;;
5704;SDS011;2877;48.238;11.160;2023-07-09T12:31:45;5.83;;;3.10;;
5704;SDS011;2877;48.238;11.160;2023-07-09T12:34:12;4.43;;;2.83;;
5704;SDS011;2877;48.238;11.160;2023-07-09T12:36:39;8.43;;;3.50;;
5704;SDS011;2877;48.238;11.160;2023-07-09T12:39:09;4.40;;;3.00;;
5704;SDS011;2877;48.238;11.160;2023-07-09T12:41:38;3.87;;;2.70;;
5704;SDS011;2877;48.238;11.160;2023-07-09T12:44:11;5.90;;;3.77;;
5704;SDS011;2877;48.238;11.160;2023-07-09T12:46:47;4.90;;;3.50;;
5704;SDS011;2877;48.238;11.160;2023-07-09T12:49:20;5.47;;;2.90;;
5704;SDS011;2877;48.238;11.160;2023-07-09T12:51:49;5.23;;;4.10;;
5704;SDS011;2877;48.238;11.160;2023-07-09T12:54:19;3.63;;;3.20;;
5704;SDS011;2877;48.238;11.160;2023-07-09T12:56:46;3.80;;;3.40;;
5704;SDS011;2877;48.238;11.160;2023-07-09T12:59:22;5.60;;;3.27;;
5704;SDS011;2877;48.238;11.160;2023-07-09T13:01:50;3.27;;;2.97;;
5704;SDS011;2877;48.238;11.160;2023-07-09T13:04:29;4.50;;;3.17;;
5704;SDS011;2877;48.238;11.160;2023-07-09T13:07:01;8.80;;;5.90;;
5704;SDS011;2877;48.238;11.160;2023-07-09T13:09:28;3.20;;;2.83;;
5704;SDS011;2877;48.238;11.160;2023-07-09T13:11:54;4.23;;;3.10;;
5704;SDS011;2877;48.238;11.160;2023-07-09T13:14:25;6.83;;;3.20;;
5704;SDS011;2877;48.238;11.160;2023-07-09T13:16:52;8.33;;;3.13;;
5704;SDS011;2877;48.238;11.160;2023-07-09T13:19:18;6.30;;;2.97;;
5704;SDS011;2877;48.238;11.160;2023-07-09T13:21:44;5.17;;;3.47;;
5704;SDS011;2877;48.238;11.160;2023-07-09T13:24:23;3.87;;;2.93;;
5704;SDS011;2877;48.238;11.160;2023-07-09T13:26:51;3.40;;;3.10;;
5704;SDS011;2877;48.238;11.160;2023-07-09T13:29:17;2.90;;;2.53;;
5704;SDS011;2877;48.238;11.160;2023-07-09T13:31:44;2.75;;;2.55;;
5704;SDS011;2877;48.238;11.160;2023-07-09T13:34:16;3.33;;;2.72;;
5704;SDS011;2877;48.238;11.160;2023-07-09T13:36:51;5.07;;;2.88;;
5704;SDS011;2877;48.238;11.160;2023-07-09T13:39:18;4.28;;;2.95;;
5704;SDS011;2877;48.238;11.160;2023-07-09T13:41:45;4.22;;;2.65;;
5704;SDS011;2877;48.238;11.160;2023-07-09T13:44:13;5.47;;;2.53;;
5704;SDS011;2877;48.238;11.160;2023-07-09T13:46:41;6.03;;;2.53;;
5704;SDS011;2877;48.238;11.160;2023-07-09T13:49:11;3.97;;;2.78;;
5704;SDS011;2877;48.238;11.160;2023-07-09T13:51:40;2.70;;;2.50;;
5704;SDS011;2877;48.238;11.160;2023-07-09T13:54:16;2.55;;;2.35;;
5704;SDS011;2877;48.238;11.160;2023-07-09T13:56:44;4.65;;;2.30;;
5704;SDS011;2877;48.238;11.160;2023-07-09T13:59:14;2.20;;;2.10;;
5704;SDS011;2877;48.238;11.160;2023-07-09T14:01:43;2.30;;;2.20;;
5704;SDS011;2877;48.238;11.160;2023-07-09T14:04:11;2.78;;;2.55;;
5704;SDS011;2877;48.238;11.160;2023-07-09T14:06:39;4.93;;;2.50;;
5704;SDS011;2877;48.238;11.160;2023-07-09T14:09:05;3.35;;;2.65;;
5704;SDS011;2877;48.238;11.160;2023-07-09T14:11:33;5.55;;;2.78;;
5704;SDS011;2877;48.238;11.160;2023-07-09T14:14:00;3.75;;;2.70;;
5704;SDS011;2877;48.238;11.160;2023-07-09T14:16:25;4.10;;;2.78;;
5704;SDS011;2877;48.238;11.160;2023-07-09T14:18:51;7.70;;;3.25;;
5704;SDS011;2877;48.238;11.160;2023-07-09T14:21:20;3.95;;;3.10;;
5704;SDS011;2877;48.238;11.160;2023-07-09T14:23:49;3.40;;;3.10;;
5704;SDS011;2877;48.238;11.160;2023-07-09T14:26:15;6.07;;;2.80;;
5704;SDS011;2877;48.238;11.160;2023-07-09T14:28:40;5.13;;;2.73;;
5704;SDS011;2877;48.238;11.160;2023-07-09T14:31:17;3.47;;;3.03;;
5704;SDS011;2877;48.238;11.160;2023-07-09T14:33:49;4.45;;;2.60;;
5704;SDS011;2877;48.238;11.160;2023-07-09T14:36:15;2.83;;;2.60;;
5704;SDS011;2877;48.238;11.160;2023-07-09T14:38:40;2.95;;;2.65;;
5704;SDS011;2877;48.238;11.160;2023-07-09T14:41:14;2.67;;;2.13;;
5704;SDS011;2877;48.238;11.160;2023-07-09T14:43:49;2.40;;;2.20;;
5704;SDS011;2877;48.238;11.160;2023-07-09T14:46:14;2.47;;;2.28;;
5704;SDS011;2877;48.238;11.160;2023-07-09T14:48:40;3.10;;;2.38;;
5704;SDS011;2877;48.238;11.160;2023-07-09T14:51:15;3.95;;;2.58;;
5704;SDS011;2877;48.238;11.160;2023-07-09T14:53:41;2.85;;;2.50;;
5704;SDS011;2877;48.238;11.160;2023-07-09T14:56:07;4.30;;;2.72;;
5704;SDS011;2877;48.238;11.160;2023-07-09T14:58:34;2.63;;;2.42;;
5704;SDS011;2877;48.238;11.160;2023-07-09T15:01:00;3.42;;;2.80;;
5704;SDS011;2877;48.238;11.160;2023-07-09T15:03:26;4.30;;;2.47;;
5704;SDS011;2877;48.238;11.160;2023-07-09T15:05:53;4.95;;;2.67;;
5704;SDS011;2877;48.238;11.160;2023-07-09T15:08:22;3.55;;;2.55;;
5704;SDS011;2877;48.238;11.160;2023-07-09T15:10:49;4.90;;;2.90;;
5704;SDS011;2877;48.238;11.160;2023-07-09T15:13:18;4.50;;;2.78;;
5704;SDS011;2877;48.238;11.160;2023-07-09T15:15:54;6.60;;;3.08;;
5704;SDS011;2877;48.238;11.160;2023-07-09T15:18:20;3.38;;;2.95;;
5704;SDS011;2877;48.238;11.160;2023-07-09T15:20:47;3.78;;;2.72;;
5704;SDS011;2877;48.238;11.160;2023-07-09T15:23:15;4.07;;;2.53;;
5704;SDS011;2877;48.238;11.160;2023-07-09T15:25:41;9.20;;;3.10;;
5704;SDS011;2877;48.238;11.160;2023-07-09T15:28:09;4.60;;;2.83;;
5704;SDS011;2877;48.238;11.160;2023-07-09T15:30:36;3.20;;;2.90;;
5704;SDS011;2877;48.238;11.160;2023-07-09T15:33:02;4.80;;;3.03;;
5704;SDS011;2877;48.238;11.160;2023-07-09T15:35:32;7.70;;;3.33;;
5704;SDS011;2877;48.238;11.160;2023-07-09T15:38:01;4.27;;;3.40;;
5704;SDS011;2877;48.238;11.160;2023-07-09T15:40:35;5.67;;;3.53;;
5704;SDS011;2877;48.238;11.160;2023-07-09T15:43:02;4.70;;;3.20;;
5704;SDS011;2877;48.238;11.160;2023-07-09T15:45:30;3.43;;;3.10;;
5704;SDS011;2877;48.238;11.160;2023-07-09T15:47:56;8.03;;;3.13;;
5704;SDS011;2877;48.238;11.160;2023-07-09T15:50:23;3.57;;;3.20;;
5704;SDS011;2877;48.238;11.160;2023-07-09T15:52:50;5.50;;;3.90;;
5704;SDS011;2877;48.238;11.160;2023-07-09T15:55:18;6.43;;;3.53;;